Sawston, United Kingdom
Current Conditions -  °F | °C
As of 3:20 PM on Wednesday 26 Nov 2014 (Local Time) from EGSC Reporting Station
Haze Haze  
Wind Chill: 48°   Ceiling: 300
Heat Index: 48°   Visibility: 1.8mi
Dew Point: 48°   Wind: 1mph
Humidity: 100%   Direction: NA
Pressure: 29.83"   Gusts: NA
Location:  52.12°N, 0.17°E
Report Text: EGSC 261520Z VRB01KT 3000 R23/P2000 R05/P2000 BR OVC003 09/09 Q1010
Loading
Personal Weather Stations






























Interactive Weather Map New forecast layout! Learn more

10-Day Weather Forecast

Advertisements
Track Severe Weather on mobile